QFA1118 YBBN-YSSY
Flight info
| Callsign | QFA1118 |
|---|---|
| Flight time | 1h 8m |
| Altitude | 40000 |
| Route | SANEG2/01R SANEG H91 IGDAM H652 TESAT |
| Aircraft | A359/H-SDE2E3GHIJ3J4J5LM1ORWXY/LB1D1 |
Departure
| Time | 2026-05-05 06:50 |
|---|---|
| Airport | Brisbane International Airport (YBBN) |
Arrival
| Time | 2026-05-05 07:58 |
|---|---|
| Airport | Sydney Kingsford Smith International Airport (YSSY) |
| Time | Latitude | Longitude | Altitude | Speed | Heading |
|---|---|---|---|---|---|
| 2026-05-05 06:10 | -27.38483 | 153.12155 | 24 ft | 0 kts | 296° |
| 2026-05-05 06:32 | -27.38488 | 153.12165 | 24 ft | 3 kts | 288° |
| 2026-05-05 06:33 | -27.38491 | 153.12186 | 29 ft | 3 kts | 258° |
| 2026-05-05 06:33 | -27.38484 | 153.12205 | 29 ft | 3 kts | 224° |
| 2026-05-05 06:33 | -27.38468 | 153.12218 | 29 ft | 3 kts | 202° |
| 2026-05-05 06:33 | -27.38449 | 153.12224 | 29 ft | 3 kts | 185° |
| 2026-05-05 06:34 | -27.38430 | 153.12224 | 29 ft | 3 kts | 162° |
| 2026-05-05 06:34 | -27.38422 | 153.12221 | 29 ft | 0 kts | 150° |
| 2026-05-05 06:38 | -27.38422 | 153.12222 | 29 ft | 1 kts | 150° |
| 2026-05-05 06:38 | -27.38457 | 153.12243 | 29 ft | 10 kts | 151° |
| 2026-05-05 06:38 | -27.38511 | 153.12318 | 28 ft | 13 kts | 118° |
| 2026-05-05 06:38 | -27.38578 | 153.12403 | 29 ft | 16 kts | 159° |
| 2026-05-05 06:39 | -27.38681 | 153.12370 | 26 ft | 14 kts | 202° |
| 2026-05-05 06:39 | -27.38761 | 153.12407 | 28 ft | 14 kts | 138° |
| 2026-05-05 06:39 | -27.38842 | 153.12415 | 29 ft | 13 kts | 205° |
| 2026-05-05 06:39 | -27.38935 | 153.12362 | 29 ft | 17 kts | 207° |
| 2026-05-05 06:40 | -27.38999 | 153.12326 | 30 ft | 0 kts | 207° |
| 2026-05-05 06:44 | -27.39009 | 153.12320 | 29 ft | 4 kts | 207° |
| 2026-05-05 06:45 | -27.39055 | 153.12294 | 30 ft | 11 kts | 207° |
| 2026-05-05 06:45 | -27.39147 | 153.12241 | 28 ft | 18 kts | 207° |
| 2026-05-05 06:45 | -27.39281 | 153.12163 | 30 ft | 25 kts | 207° |
| 2026-05-05 06:45 | -27.39445 | 153.12070 | 29 ft | 28 kts | 207° |
| 2026-05-05 06:46 | -27.39624 | 153.11969 | 29 ft | 30 kts | 206° |
| 2026-05-05 06:46 | -27.39813 | 153.11862 | 29 ft | 31 kts | 207° |
| 2026-05-05 06:46 | -27.39997 | 153.11757 | 28 ft | 30 kts | 207° |
| 2026-05-05 06:46 | -27.40166 | 153.11660 | 29 ft | 23 kts | 207° |
| 2026-05-05 06:47 | -27.40266 | 153.11607 | 28 ft | 7 kts | 190° |
| 2026-05-05 06:47 | -27.40303 | 153.11639 | 28 ft | 1 kts | 116° |
| 2026-05-05 06:48 | -27.40307 | 153.11647 | 29 ft | 5 kts | 116° |
| 2026-05-05 06:48 | -27.40323 | 153.11715 | 30 ft | 13 kts | 96° |
| 2026-05-05 06:49 | -27.40291 | 153.11814 | 31 ft | 13 kts | 37° |
| 2026-05-05 06:49 | -27.40196 | 153.11869 | 29 ft | 17 kts | 27° |
| 2026-05-05 06:49 | -27.39911 | 153.12032 | 30 ft | 86 kts | 27° |
| 2026-05-05 06:49 | -27.39151 | 153.12472 | 27 ft | 155 kts | 26° |
| 2026-05-05 06:50 | -27.38125 | 153.13029 | 680 ft | 166 kts | 26° |
| 2026-05-05 06:50 | -27.37056 | 153.13615 | 1463 ft | 177 kts | 27° |
| 2026-05-05 06:50 | -27.35993 | 153.14412 | 1988 ft | 193 kts | 48° |
| 2026-05-05 06:50 | -27.35129 | 153.15672 | 2268 ft | 215 kts | 55° |
| 2026-05-05 06:51 | -27.34173 | 153.17060 | 2620 ft | 232 kts | 51° |
| 2026-05-05 06:51 | -27.33458 | 153.17996 | 2854 ft | 245 kts | 49° |
| 2026-05-05 06:51 | -27.32268 | 153.19440 | 3399 ft | 256 kts | 47° |
| 2026-05-05 06:51 | -27.30591 | 153.21371 | 4357 ft | 260 kts | 46° |
| 2026-05-05 06:52 | -27.29370 | 153.22884 | 5095 ft | 261 kts | 55° |
| 2026-05-05 06:52 | -27.28816 | 153.24078 | 5546 ft | 261 kts | 73° |
| 2026-05-05 06:52 | -27.28531 | 153.26082 | 6290 ft | 261 kts | 88° |
| 2026-05-05 06:52 | -27.28448 | 153.28121 | 6947 ft | 263 kts | 89° |
| 2026-05-05 06:53 | -27.28377 | 153.30197 | 7580 ft | 267 kts | 89° |
| 2026-05-05 06:53 | -27.28297 | 153.32297 | 8227 ft | 270 kts | 89° |
| 2026-05-05 06:53 | -27.28209 | 153.34413 | 8891 ft | 273 kts | 89° |
| 2026-05-05 06:53 | -27.28247 | 153.36555 | 9537 ft | 275 kts | 101° |
| 2026-05-05 06:54 | -27.28945 | 153.38540 | 10156 ft | 275 kts | 126° |
| 2026-05-05 06:54 | -27.30347 | 153.39988 | 10666 ft | 278 kts | 152° |
| 2026-05-05 06:54 | -27.32199 | 153.40616 | 11153 ft | 282 kts | 176° |
| 2026-05-05 06:54 | -27.34168 | 153.40779 | 11676 ft | 287 kts | 178° |
| 2026-05-05 06:55 | -27.36172 | 153.40918 | 12217 ft | 292 kts | 178° |
| 2026-05-05 06:55 | -27.38228 | 153.40901 | 12737 ft | 295 kts | 191° |
| 2026-05-05 06:55 | -27.40268 | 153.40382 | 13059 ft | 307 kts | 199° |
| 2026-05-05 06:55 | -27.42337 | 153.39697 | 13317 ft | 321 kts | 199° |
| 2026-05-05 06:56 | -27.44525 | 153.38969 | 13568 ft | 335 kts | 199° |
| 2026-05-05 06:56 | -27.46795 | 153.38186 | 13825 ft | 346 kts | 202° |
| 2026-05-05 06:56 | -27.48895 | 153.36849 | 14129 ft | 349 kts | 220° |
| 2026-05-05 06:56 | -27.50776 | 153.35102 | 14507 ft | 353 kts | 224° |
| 2026-05-05 06:57 | -27.52657 | 153.33292 | 14927 ft | 357 kts | 224° |
| 2026-05-05 06:57 | -27.54546 | 153.31480 | 15366 ft | 359 kts | 224° |
| 2026-05-05 06:57 | -27.56281 | 153.29464 | 15803 ft | 356 kts | 238° |
| 2026-05-05 06:57 | -27.57527 | 153.27067 | 16299 ft | 354 kts | 246° |
| 2026-05-05 06:58 | -27.58632 | 153.24578 | 16780 ft | 355 kts | 248° |
| 2026-05-05 06:58 | -27.59729 | 153.22081 | 17243 ft | 357 kts | 248° |
| 2026-05-05 06:58 | -27.60890 | 153.19601 | 17713 ft | 361 kts | 243° |
| 2026-05-05 06:58 | -27.62521 | 153.17408 | 18160 ft | 373 kts | 226° |
| 2026-05-05 06:59 | -27.64682 | 153.15720 | 18555 ft | 382 kts | 217° |
| 2026-05-05 06:59 | -27.66986 | 153.14194 | 18887 ft | 386 kts | 216° |
| 2026-05-05 06:59 | -27.69319 | 153.12668 | 19285 ft | 388 kts | 216° |
| 2026-05-05 06:59 | -27.71655 | 153.11132 | 19659 ft | 390 kts | 216° |
| 2026-05-05 07:00 | -27.73987 | 153.09589 | 20058 ft | 392 kts | 217° |
| 2026-05-05 07:00 | -27.76363 | 153.08012 | 20467 ft | 393 kts | 217° |
| 2026-05-05 07:00 | -27.78724 | 153.06440 | 20863 ft | 395 kts | 217° |
| 2026-05-05 07:00 | -27.81110 | 153.04877 | 21241 ft | 399 kts | 215° |
| 2026-05-05 07:01 | -27.83626 | 153.03509 | 21627 ft | 404 kts | 210° |
| 2026-05-05 07:01 | -27.86237 | 153.02285 | 22008 ft | 408 kts | 208° |
| 2026-05-05 07:01 | -27.88867 | 153.01145 | 22377 ft | 411 kts | 207° |
| 2026-05-05 07:01 | -27.91588 | 152.99999 | 22774 ft | 413 kts | 207° |
| 2026-05-05 07:02 | -27.94257 | 152.98877 | 23138 ft | 415 kts | 208° |
| 2026-05-05 07:02 | -27.96966 | 152.97724 | 23506 ft | 418 kts | 208° |
| 2026-05-05 07:02 | -27.99690 | 152.96550 | 23829 ft | 419 kts | 208° |
| 2026-05-05 07:02 | -28.02414 | 152.95365 | 24157 ft | 421 kts | 209° |
| 2026-05-05 07:03 | -28.05150 | 152.94166 | 24496 ft | 422 kts | 209° |
| 2026-05-05 07:03 | -28.07897 | 152.92959 | 24835 ft | 423 kts | 210° |
| 2026-05-05 07:03 | -28.10647 | 152.91752 | 25162 ft | 425 kts | 210° |
| 2026-05-05 07:03 | -28.13413 | 152.90530 | 25479 ft | 427 kts | 210° |
| 2026-05-05 07:04 | -28.16187 | 152.89294 | 25801 ft | 429 kts | 211° |
| 2026-05-05 07:04 | -28.18970 | 152.88050 | 26120 ft | 431 kts | 211° |
| 2026-05-05 07:04 | -28.21790 | 152.86783 | 26366 ft | 443 kts | 211° |
| 2026-05-05 07:04 | -28.24701 | 152.85469 | 26613 ft | 456 kts | 211° |
| 2026-05-05 07:05 | -28.27688 | 152.84124 | 26866 ft | 469 kts | 211° |
| 2026-05-05 07:05 | -28.30769 | 152.82742 | 27122 ft | 481 kts | 211° |
| 2026-05-05 07:05 | -28.33920 | 152.81332 | 27393 ft | 492 kts | 211° |
| 2026-05-05 07:05 | -28.37139 | 152.79895 | 27694 ft | 502 kts | 211° |
| 2026-05-05 07:06 | -28.40413 | 152.78439 | 28067 ft | 508 kts | 211° |
| 2026-05-05 07:06 | -28.43717 | 152.76975 | 28547 ft | 511 kts | 211° |
| 2026-05-05 07:06 | -28.47039 | 152.75500 | 28990 ft | 514 kts | 211° |
| 2026-05-05 07:06 | -28.50384 | 152.74012 | 29458 ft | 517 kts | 211° |
| 2026-05-05 07:07 | -28.53742 | 152.72517 | 29917 ft | 519 kts | 211° |
| 2026-05-05 07:07 | -28.57064 | 152.71033 | 30335 ft | 520 kts | 212° |
| 2026-05-05 07:07 | -28.60435 | 152.69523 | 30747 ft | 521 kts | 212° |
| 2026-05-05 07:07 | -28.63799 | 152.68014 | 31155 ft | 523 kts | 212° |
| 2026-05-05 07:08 | -28.67184 | 152.66494 | 31563 ft | 523 kts | 212° |
| 2026-05-05 07:08 | -28.70592 | 152.64964 | 31978 ft | 524 kts | 212° |
| 2026-05-05 07:08 | -28.73991 | 152.63438 | 32404 ft | 524 kts | 212° |
| 2026-05-05 07:08 | -28.77385 | 152.61913 | 32833 ft | 525 kts | 212° |
| 2026-05-05 07:09 | -28.80788 | 152.60382 | 33261 ft | 525 kts | 212° |
| 2026-05-05 07:09 | -28.84159 | 152.58824 | 33713 ft | 519 kts | 216° |
| 2026-05-05 07:09 | -28.87387 | 152.57033 | 34152 ft | 514 kts | 218° |
| 2026-05-05 07:09 | -28.90573 | 152.55190 | 34539 ft | 512 kts | 219° |
| 2026-05-05 07:10 | -28.93741 | 152.53321 | 34940 ft | 510 kts | 219° |
| 2026-05-05 07:10 | -28.96879 | 152.51452 | 35370 ft | 508 kts | 219° |
| 2026-05-05 07:10 | -29.00003 | 152.49584 | 35769 ft | 506 kts | 219° |
| 2026-05-05 07:10 | -29.03111 | 152.47725 | 36186 ft | 504 kts | 220° |
| 2026-05-05 07:11 | -29.06206 | 152.45874 | 36621 ft | 501 kts | 220° |
| 2026-05-05 07:11 | -29.09288 | 152.44031 | 37052 ft | 499 kts | 220° |
| 2026-05-05 07:11 | -29.12356 | 152.42200 | 37491 ft | 495 kts | 220° |
| 2026-05-05 07:11 | -29.15368 | 152.40403 | 37935 ft | 492 kts | 220° |
| 2026-05-05 07:12 | -29.18431 | 152.38571 | 38410 ft | 489 kts | 220° |
| 2026-05-05 07:12 | -29.21440 | 152.36770 | 38853 ft | 486 kts | 221° |
| 2026-05-05 07:12 | -29.24427 | 152.34983 | 39231 ft | 483 kts | 220° |
| 2026-05-05 07:12 | -29.27355 | 152.33232 | 39612 ft | 480 kts | 220° |
| 2026-05-05 07:13 | -29.30309 | 152.31465 | 39984 ft | 478 kts | 220° |
| 2026-05-05 07:13 | -29.33260 | 152.29691 | 40109 ft | 481 kts | 220° |
| 2026-05-05 07:13 | -29.36270 | 152.27870 | 40127 ft | 486 kts | 220° |
| 2026-05-05 07:14 | -29.42268 | 152.24242 | 40123 ft | 495 kts | 219° |
| 2026-05-05 07:14 | -29.48391 | 152.20564 | 40124 ft | 497 kts | 219° |
| 2026-05-05 07:15 | -29.54513 | 152.16890 | 40129 ft | 496 kts | 219° |
| 2026-05-05 07:15 | -29.60630 | 152.13210 | 40132 ft | 496 kts | 219° |
| 2026-05-05 07:16 | -29.66743 | 152.09519 | 40134 ft | 497 kts | 220° |
| 2026-05-05 07:16 | -29.69928 | 152.07872 | 40128 ft | 509 kts | 212° |
| 2026-05-05 07:16 | -29.73362 | 152.06671 | 40136 ft | 519 kts | 206° |
| 2026-05-05 07:17 | -29.80406 | 152.04707 | 40134 ft | 522 kts | 204° |
| 2026-05-05 07:17 | -29.87497 | 152.02899 | 40136 ft | 522 kts | 204° |
| 2026-05-05 07:18 | -29.94585 | 152.01084 | 40138 ft | 521 kts | 204° |
| 2026-05-05 07:18 | -30.01669 | 151.99242 | 40145 ft | 521 kts | 204° |
| 2026-05-05 07:19 | -30.08733 | 151.97390 | 40144 ft | 520 kts | 204° |
| 2026-05-05 07:19 | -30.15755 | 151.95543 | 40137 ft | 520 kts | 204° |
| 2026-05-05 07:20 | -30.22823 | 151.93684 | 40142 ft | 520 kts | 204° |
| 2026-05-05 07:20 | -30.29881 | 151.91820 | 40137 ft | 520 kts | 204° |
| 2026-05-05 07:20 | -30.33298 | 151.90615 | 40136 ft | 508 kts | 212° |
| 2026-05-05 07:21 | -30.36603 | 151.89188 | 40136 ft | 506 kts | 213° |
| 2026-05-05 07:21 | -30.43152 | 151.86193 | 40141 ft | 505 kts | 214° |
| 2026-05-05 07:22 | -30.49672 | 151.83130 | 40137 ft | 506 kts | 213° |
| 2026-05-05 07:22 | -30.56201 | 151.80066 | 40135 ft | 507 kts | 213° |
| 2026-05-05 07:23 | -30.62754 | 151.77002 | 40133 ft | 507 kts | 213° |
| 2026-05-05 07:23 | -30.69295 | 151.73945 | 40158 ft | 506 kts | 213° |
| 2026-05-05 07:24 | -30.75817 | 151.70895 | 40135 ft | 504 kts | 213° |
| 2026-05-05 07:24 | -30.82282 | 151.67865 | 40132 ft | 504 kts | 213° |
| 2026-05-05 07:25 | -30.88783 | 151.64811 | 40143 ft | 504 kts | 213° |
| 2026-05-05 07:25 | -30.95267 | 151.61764 | 40140 ft | 501 kts | 213° |
| 2026-05-05 07:26 | -31.01728 | 151.58723 | 40140 ft | 499 kts | 213° |
| 2026-05-05 07:26 | -31.08160 | 151.55687 | 40145 ft | 499 kts | 213° |
| 2026-05-05 07:27 | -31.14596 | 151.52644 | 40151 ft | 499 kts | 213° |
| 2026-05-05 07:27 | -31.21025 | 151.49603 | 40148 ft | 498 kts | 213° |
| 2026-05-05 07:28 | -31.27407 | 151.46580 | 40146 ft | 498 kts | 213° |
| 2026-05-05 07:28 | -31.33831 | 151.43533 | 40149 ft | 498 kts | 213° |
| 2026-05-05 07:29 | -31.40263 | 151.40482 | 40154 ft | 498 kts | 212° |
| 2026-05-05 07:29 | -31.46754 | 151.37557 | 40155 ft | 500 kts | 211° |
| 2026-05-05 07:30 | -31.53268 | 151.34689 | 40158 ft | 500 kts | 211° |
| 2026-05-05 07:30 | -31.59760 | 151.31813 | 40020 ft | 493 kts | 211° |
| 2026-05-05 07:30 | -31.62942 | 151.30403 | 39784 ft | 486 kts | 211° |
| 2026-05-05 07:31 | -31.66092 | 151.28998 | 39560 ft | 483 kts | 212° |
| 2026-05-05 07:31 | -31.69233 | 151.27586 | 39336 ft | 483 kts | 212° |
| 2026-05-05 07:31 | -31.72368 | 151.26170 | 39107 ft | 484 kts | 212° |
| 2026-05-05 07:31 | -31.75508 | 151.24751 | 38880 ft | 484 kts | 212° |
| 2026-05-05 07:32 | -31.78658 | 151.23329 | 38655 ft | 485 kts | 212° |
| 2026-05-05 07:32 | -31.81815 | 151.21905 | 38378 ft | 486 kts | 211° |
| 2026-05-05 07:32 | -31.84971 | 151.20480 | 38104 ft | 488 kts | 211° |
| 2026-05-05 07:32 | -31.88156 | 151.19045 | 37842 ft | 488 kts | 211° |
| 2026-05-05 07:33 | -31.91334 | 151.17613 | 37579 ft | 489 kts | 211° |
| 2026-05-05 07:33 | -31.94511 | 151.16181 | 37317 ft | 490 kts | 211° |
| 2026-05-05 07:33 | -31.97711 | 151.14749 | 37058 ft | 491 kts | 211° |
| 2026-05-05 07:33 | -32.00854 | 151.13345 | 36530 ft | 488 kts | 211° |
| 2026-05-05 07:34 | -32.04070 | 151.11907 | 35808 ft | 487 kts | 211° |
| 2026-05-05 07:34 | -32.07192 | 151.10506 | 35064 ft | 488 kts | 211° |
| 2026-05-05 07:34 | -32.10368 | 151.09076 | 34243 ft | 490 kts | 211° |
| 2026-05-05 07:34 | -32.13566 | 151.07635 | 33306 ft | 493 kts | 210° |
| 2026-05-05 07:35 | -32.16767 | 151.06193 | 32381 ft | 495 kts | 210° |
| 2026-05-05 07:35 | -32.19970 | 151.04752 | 31066 ft | 490 kts | 210° |
| 2026-05-05 07:35 | -32.23165 | 151.03315 | 29172 ft | 495 kts | 208° |
| 2026-05-05 07:35 | -32.26371 | 151.01871 | 27882 ft | 486 kts | 208° |
| 2026-05-05 07:36 | -32.29463 | 151.00502 | 27517 ft | 465 kts | 207° |
| 2026-05-05 07:36 | -32.32474 | 150.99223 | 27258 ft | 453 kts | 206° |
| 2026-05-05 07:36 | -32.35413 | 150.97986 | 26874 ft | 446 kts | 206° |
| 2026-05-05 07:36 | -32.38329 | 150.96711 | 26342 ft | 445 kts | 208° |
| 2026-05-05 07:37 | -32.41198 | 150.95372 | 25848 ft | 440 kts | 209° |
| 2026-05-05 07:37 | -32.43054 | 150.94490 | 25677 ft | 432 kts | 209° |
| 2026-05-05 07:37 | -32.45819 | 150.93182 | 25380 ft | 422 kts | 209° |
| 2026-05-05 07:37 | -32.49596 | 150.91896 | 24765 ft | 427 kts | 194° |
| 2026-05-05 07:38 | -32.52589 | 150.91815 | 24318 ft | 431 kts | 183° |
| 2026-05-05 07:38 | -32.54568 | 150.91999 | 24023 ft | 430 kts | 180° |
| 2026-05-05 07:38 | -32.57526 | 150.92429 | 23704 ft | 424 kts | 172° |
| 2026-05-05 07:38 | -32.60401 | 150.92956 | 23176 ft | 416 kts | 176° |
| 2026-05-05 07:39 | -32.63275 | 150.93507 | 22238 ft | 421 kts | 176° |
| 2026-05-05 07:39 | -32.66173 | 150.94061 | 21366 ft | 419 kts | 175° |
| 2026-05-05 07:39 | -32.69006 | 150.94600 | 20612 ft | 404 kts | 175° |
| 2026-05-05 07:39 | -32.71693 | 150.95105 | 19899 ft | 389 kts | 175° |
| 2026-05-05 07:40 | -32.75188 | 150.95744 | 18941 ft | 372 kts | 174° |
| 2026-05-05 07:40 | -32.76869 | 150.96045 | 18528 ft | 364 kts | 174° |
| 2026-05-05 07:40 | -32.79360 | 150.96488 | 17975 ft | 361 kts | 174° |
| 2026-05-05 07:40 | -32.81838 | 150.96930 | 17444 ft | 359 kts | 174° |
| 2026-05-05 07:41 | -32.84303 | 150.97363 | 16934 ft | 356 kts | 174° |
| 2026-05-05 07:41 | -32.86744 | 150.97795 | 16425 ft | 353 kts | 174° |
| 2026-05-05 07:41 | -32.89164 | 150.98224 | 15932 ft | 351 kts | 174° |
| 2026-05-05 07:41 | -32.91574 | 150.98652 | 15442 ft | 348 kts | 174° |
| 2026-05-05 07:42 | -32.93962 | 150.99077 | 14973 ft | 345 kts | 174° |
| 2026-05-05 07:42 | -32.96327 | 150.99498 | 14487 ft | 342 kts | 174° |
| 2026-05-05 07:42 | -32.98678 | 150.99917 | 14019 ft | 340 kts | 174° |
| 2026-05-05 07:42 | -33.01004 | 151.00332 | 13508 ft | 337 kts | 174° |
| 2026-05-05 07:43 | -33.03314 | 151.00745 | 12978 ft | 334 kts | 174° |
| 2026-05-05 07:43 | -33.05603 | 151.01153 | 12482 ft | 331 kts | 174° |
| 2026-05-05 07:43 | -33.07875 | 151.01560 | 11976 ft | 329 kts | 174° |
| 2026-05-05 07:43 | -33.10131 | 151.01963 | 11485 ft | 326 kts | 174° |
| 2026-05-05 07:44 | -33.12360 | 151.02363 | 11001 ft | 323 kts | 174° |
| 2026-05-05 07:44 | -33.14574 | 151.02759 | 10523 ft | 321 kts | 174° |
| 2026-05-05 07:44 | -33.16767 | 151.03152 | 10060 ft | 318 kts | 174° |
| 2026-05-05 07:44 | -33.18923 | 151.03538 | 9549 ft | 316 kts | 174° |
| 2026-05-05 07:45 | -33.21114 | 151.03930 | 9025 ft | 313 kts | 174° |
| 2026-05-05 07:45 | -33.23223 | 151.04311 | 8523 ft | 310 kts | 173° |
| 2026-05-05 07:45 | -33.25339 | 151.04721 | 8122 ft | 303 kts | 173° |
| 2026-05-05 07:45 | -33.27379 | 151.05109 | 7993 ft | 288 kts | 173° |
| 2026-05-05 07:46 | -33.29292 | 151.05475 | 7987 ft | 273 kts | 173° |
| 2026-05-05 07:46 | -33.31158 | 151.05830 | 7988 ft | 271 kts | 174° |
| 2026-05-05 07:46 | -33.33018 | 151.06182 | 7989 ft | 271 kts | 174° |
| 2026-05-05 07:46 | -33.34880 | 151.06537 | 7990 ft | 271 kts | 174° |
| 2026-05-05 07:47 | -33.36744 | 151.06842 | 7992 ft | 270 kts | 178° |
| 2026-05-05 07:47 | -33.38620 | 151.06921 | 7990 ft | 269 kts | 182° |
| 2026-05-05 07:47 | -33.40495 | 151.06935 | 7908 ft | 269 kts | 183° |
| 2026-05-05 07:47 | -33.42346 | 151.06945 | 7538 ft | 265 kts | 182° |
| 2026-05-05 07:48 | -33.44181 | 151.06957 | 7151 ft | 263 kts | 182° |
| 2026-05-05 07:48 | -33.46005 | 151.06969 | 6772 ft | 260 kts | 182° |
| 2026-05-05 07:48 | -33.47809 | 151.06982 | 6377 ft | 258 kts | 182° |
| 2026-05-05 07:48 | -33.49603 | 151.06996 | 5968 ft | 256 kts | 182° |
| 2026-05-05 07:49 | -33.51373 | 151.07010 | 5586 ft | 254 kts | 181° |
| 2026-05-05 07:49 | -33.53126 | 151.07037 | 5255 ft | 250 kts | 180° |
| 2026-05-05 07:49 | -33.54844 | 151.07310 | 4935 ft | 247 kts | 171° |
| 2026-05-05 07:49 | -33.56513 | 151.07732 | 4598 ft | 243 kts | 169° |
| 2026-05-05 07:50 | -33.58161 | 151.08163 | 4260 ft | 240 kts | 169° |
| 2026-05-05 07:50 | -33.59780 | 151.08584 | 3937 ft | 237 kts | 169° |
| 2026-05-05 07:50 | -33.61388 | 151.09001 | 3612 ft | 235 kts | 169° |
| 2026-05-05 07:50 | -33.62966 | 151.09411 | 3290 ft | 233 kts | 169° |
| 2026-05-05 07:51 | -33.64552 | 151.09820 | 3037 ft | 227 kts | 169° |
| 2026-05-05 07:51 | -33.66041 | 151.10211 | 2972 ft | 208 kts | 169° |
| 2026-05-05 07:51 | -33.67359 | 151.10559 | 2954 ft | 180 kts | 170° |
| 2026-05-05 07:51 | -33.68567 | 151.10867 | 3002 ft | 176 kts | 171° |
| 2026-05-05 07:52 | -33.69758 | 151.11167 | 2998 ft | 179 kts | 170° |
| 2026-05-05 07:52 | -33.70989 | 151.11482 | 2992 ft | 179 kts | 170° |
| 2026-05-05 07:52 | -33.72213 | 151.11796 | 2994 ft | 178 kts | 170° |
| 2026-05-05 07:52 | -33.73346 | 151.12090 | 2975 ft | 156 kts | 169° |
| 2026-05-05 07:53 | -33.74364 | 151.12353 | 2992 ft | 150 kts | 169° |
| 2026-05-05 07:53 | -33.75373 | 151.12609 | 2995 ft | 148 kts | 169° |
| 2026-05-05 07:53 | -33.76374 | 151.12870 | 2994 ft | 147 kts | 170° |
| 2026-05-05 07:53 | -33.77376 | 151.13129 | 2993 ft | 147 kts | 169° |
| 2026-05-05 07:54 | -33.78372 | 151.13383 | 2942 ft | 147 kts | 170° |
| 2026-05-05 07:54 | -33.79375 | 151.13637 | 2777 ft | 147 kts | 170° |
| 2026-05-05 07:54 | -33.80375 | 151.13895 | 2568 ft | 146 kts | 169° |
| 2026-05-05 07:54 | -33.81368 | 151.14154 | 2376 ft | 145 kts | 170° |
| 2026-05-05 07:55 | -33.82352 | 151.14411 | 2185 ft | 145 kts | 168° |
| 2026-05-05 07:55 | -33.83345 | 151.14669 | 1990 ft | 145 kts | 169° |
| 2026-05-05 07:55 | -33.84329 | 151.14922 | 1787 ft | 144 kts | 169° |
| 2026-05-05 07:55 | -33.85286 | 151.15170 | 1594 ft | 137 kts | 170° |
| 2026-05-05 07:56 | -33.86205 | 151.15408 | 1418 ft | 135 kts | 168° |
| 2026-05-05 07:56 | -33.87098 | 151.15641 | 1252 ft | 126 kts | 169° |
| 2026-05-05 07:56 | -33.87923 | 151.15855 | 1076 ft | 119 kts | 168° |
| 2026-05-05 07:56 | -33.88731 | 151.16066 | 945 ft | 120 kts | 170° |
| 2026-05-05 07:57 | -33.89537 | 151.16272 | 773 ft | 117 kts | 169° |
| 2026-05-05 07:57 | -33.90338 | 151.16483 | 627 ft | 119 kts | 167° |
| 2026-05-05 07:57 | -33.91158 | 151.16695 | 433 ft | 119 kts | 169° |
| 2026-05-05 07:57 | -33.91960 | 151.16911 | 304 ft | 118 kts | 167° |
| 2026-05-05 07:58 | -33.92773 | 151.17118 | 120 ft | 120 kts | 167° |
| 2026-05-05 07:58 | -33.93577 | 151.17328 | 34 ft | 112 kts | 169° |
| 2026-05-05 07:58 | -33.94143 | 151.17475 | 34 ft | 44 kts | 168° |
| 2026-05-05 07:58 | -33.94356 | 151.17531 | 35 ft | 30 kts | 167° |
| 2026-05-05 07:59 | -33.94554 | 151.17579 | 36 ft | 28 kts | 168° |
| 2026-05-05 07:59 | -33.94725 | 151.17598 | 34 ft | 17 kts | 210° |
| 2026-05-05 07:59 | -33.94746 | 151.17505 | 36 ft | 13 kts | 279° |
| 2026-05-05 07:59 | -33.94684 | 151.17408 | 37 ft | 16 kts | 337° |
| 2026-05-05 08:00 | -33.94563 | 151.17378 | 37 ft | 20 kts | 348° |
| 2026-05-05 08:00 | -33.94424 | 151.17343 | 37 ft | 16 kts | 348° |
| 2026-05-05 08:00 | -33.94317 | 151.17315 | 36 ft | 17 kts | 348° |
| 2026-05-05 08:00 | -33.94184 | 151.17281 | 35 ft | 22 kts | 348° |
| 2026-05-05 08:01 | -33.94046 | 151.17244 | 35 ft | 17 kts | 347° |
| 2026-05-05 08:01 | -33.93978 | 151.17210 | 35 ft | 3 kts | 293° |
| 2026-05-05 08:01 | -33.93985 | 151.17172 | 36 ft | 9 kts | 259° |
| 2026-05-05 08:01 | -33.94005 | 151.17068 | 36 ft | 15 kts | 245° |
| 2026-05-05 08:02 | -33.94040 | 151.16931 | 36 ft | 19 kts | 253° |
| 2026-05-05 08:02 | -33.94040 | 151.16814 | 36 ft | 14 kts | 320° |
| 2026-05-05 08:02 | -33.93941 | 151.16778 | 36 ft | 16 kts | 344° |
| 2026-05-05 08:02 | -33.93857 | 151.16756 | 36 ft | 7 kts | 8° |
| 2026-05-05 08:03 | -33.93840 | 151.16789 | 36 ft | 7 kts | 71° |
| 2026-05-05 08:03 | -33.93830 | 151.16829 | 36 ft | 5 kts | 73° |
| 2026-05-05 08:03 | -33.93827 | 151.16842 | 36 ft | 0 kts | 73° |